sensor_id;sensor_type;location;lat;lon;timestamp;P1;durP1;ratioP1;P2;durP2;ratioP2
51838;SDS011;37886;53.174;6.368;2022-12-20T00:00:54;11.43;;;6.00;;
51838;SDS011;37886;53.174;6.368;2022-12-20T00:03:19;10.15;;;6.30;;
51838;SDS011;37886;53.174;6.368;2022-12-20T00:05:45;11.63;;;6.18;;
51838;SDS011;37886;53.174;6.368;2022-12-20T00:08:11;9.52;;;6.35;;
51838;SDS011;37886;53.174;6.368;2022-12-20T00:10:41;12.20;;;6.32;;
51838;SDS011;37886;53.174;6.368;2022-12-20T00:13:09;9.13;;;6.00;;
51838;SDS011;37886;53.174;6.368;2022-12-20T00:15:36;9.35;;;5.47;;
51838;SDS011;37886;53.174;6.368;2022-12-20T00:18:02;7.90;;;5.50;;
51838;SDS011;37886;53.174;6.368;2022-12-20T00:20:28;10.60;;;5.55;;
51838;SDS011;37886;53.174;6.368;2022-12-20T00:22:54;9.30;;;5.45;;
51838;SDS011;37886;53.174;6.368;2022-12-20T00:25:20;9.43;;;5.50;;
51838;SDS011;37886;53.174;6.368;2022-12-20T00:27:46;7.20;;;5.32;;
51838;SDS011;37886;53.174;6.368;2022-12-20T00:30:13;10.40;;;5.63;;
51838;SDS011;37886;53.174;6.368;2022-12-20T00:32:39;7.95;;;5.57;;
51838;SDS011;37886;53.174;6.368;2022-12-20T00:35:05;8.73;;;5.00;;
51838;SDS011;37886;53.174;6.368;2022-12-20T00:37:31;8.77;;;5.50;;
51838;SDS011;37886;53.174;6.368;2022-12-20T00:39:57;10.25;;;6.10;;
51838;SDS011;37886;53.174;6.368;2022-12-20T00:42:22;8.95;;;5.05;;
51838;SDS011;37886;53.174;6.368;2022-12-20T00:44:48;10.45;;;5.80;;
51838;SDS011;37886;53.174;6.368;2022-12-20T00:47:14;9.52;;;5.30;;
51838;SDS011;37886;53.174;6.368;2022-12-20T00:49:40;13.95;;;5.80;;
51838;SDS011;37886;53.174;6.368;2022-12-20T00:52:06;8.95;;;5.45;;
51838;SDS011;37886;53.174;6.368;2022-12-20T00:54:32;10.35;;;5.25;;
51838;SDS011;37886;53.174;6.368;2022-12-20T00:56:58;8.75;;;5.43;;
51838;SDS011;37886;53.174;6.368;2022-12-20T00:59:23;11.57;;;5.75;;
51838;SDS011;37886;53.174;6.368;2022-12-20T01:01:49;11.48;;;5.70;;
51838;SDS011;37886;53.174;6.368;2022-12-20T01:04:15;9.95;;;5.68;;
51838;SDS011;37886;53.174;6.368;2022-12-20T01:06:41;7.20;;;5.20;;
51838;SDS011;37886;53.174;6.368;2022-12-20T01:09:07;8.05;;;5.05;;
51838;SDS011;37886;53.174;6.368;2022-12-20T01:11:33;8.88;;;5.10;;
51838;SDS011;37886;53.174;6.368;2022-12-20T01:14:01;8.60;;;5.28;;
51838;SDS011;37886;53.174;6.368;2022-12-20T01:16:42;7.20;;;4.75;;
51838;SDS011;37886;53.174;6.368;2022-12-20T01:19:10;6.43;;;4.53;;
51838;SDS011;37886;53.174;6.368;2022-12-20T01:21:38;8.40;;;5.10;;
51838;SDS011;37886;53.174;6.368;2022-12-20T01:24:08;7.55;;;5.10;;
51838;SDS011;37886;53.174;6.368;2022-12-20T01:26:35;10.23;;;4.90;;
51838;SDS011;37886;53.174;6.368;2022-12-20T01:29:01;8.77;;;4.60;;
51838;SDS011;37886;53.174;6.368;2022-12-20T01:31:27;7.32;;;4.80;;
51838;SDS011;37886;53.174;6.368;2022-12-20T01:33:54;9.80;;;4.70;;
51838;SDS011;37886;53.174;6.368;2022-12-20T01:36:25;5.75;;;4.82;;
51838;SDS011;37886;53.174;6.368;2022-12-20T01:38:57;9.95;;;4.65;;
51838;SDS011;37886;53.174;6.368;2022-12-20T01:41:41;7.85;;;5.45;;
51838;SDS011;37886;53.174;6.368;2022-12-20T01:46:40;7.40;;;4.72;;
51838;SDS011;37886;53.174;6.368;2022-12-20T01:51:44;9.18;;;4.25;;
51838;SDS011;37886;53.174;6.368;2022-12-20T01:54:59;6.30;;;4.20;;
51838;SDS011;37886;53.174;6.368;2022-12-20T01:57:05;10.38;;;4.53;;
51838;SDS011;37886;53.174;6.368;2022-12-20T01:59:38;10.65;;;4.90;;
51838;SDS011;37886;53.174;6.368;2022-12-20T02:02:06;9.27;;;4.95;;
51838;SDS011;37886;53.174;6.368;2022-12-20T02:04:36;8.70;;;4.50;;
51838;SDS011;37886;53.174;6.368;2022-12-20T02:07:02;8.25;;;4.43;;
51838;SDS011;37886;53.174;6.368;2022-12-20T02:09:29;6.75;;;4.32;;
51838;SDS011;37886;53.174;6.368;2022-12-20T02:12:20;6.53;;;4.30;;
51838;SDS011;37886;53.174;6.368;2022-12-20T02:20:05;9.95;;;5.28;;
51838;SDS011;37886;53.174;6.368;2022-12-20T02:22:45;9.80;;;4.38;;
51838;SDS011;37886;53.174;6.368;2022-12-20T02:28:14;8.48;;;4.78;;
51838;SDS011;37886;53.174;6.368;2022-12-20T02:30:46;9.82;;;5.03;;
51838;SDS011;37886;53.174;6.368;2022-12-20T02:33:16;7.90;;;4.70;;
51838;SDS011;37886;53.174;6.368;2022-12-20T02:35:44;8.85;;;5.03;;
51838;SDS011;37886;53.174;6.368;2022-12-20T02:38:26;7.82;;;4.95;;
51838;SDS011;37886;53.174;6.368;2022-12-20T02:41:01;7.80;;;4.80;;
51838;SDS011;37886;53.174;6.368;2022-12-20T02:43:33;9.00;;;5.22;;
51838;SDS011;37886;53.174;6.368;2022-12-20T02:46:20;7.43;;;5.15;;
51838;SDS011;37886;53.174;6.368;2022-12-20T02:48:47;7.68;;;4.82;;
51838;SDS011;37886;53.174;6.368;2022-12-20T02:51:15;10.73;;;4.88;;
51838;SDS011;37886;53.174;6.368;2022-12-20T02:53:44;7.95;;;5.05;;
51838;SDS011;37886;53.174;6.368;2022-12-20T02:59:36;10.25;;;5.22;;
51838;SDS011;37886;53.174;6.368;2022-12-20T03:02:08;10.07;;;5.70;;
51838;SDS011;37886;53.174;6.368;2022-12-20T03:04:35;11.90;;;5.72;;
51838;SDS011;37886;53.174;6.368;2022-12-20T03:07:05;9.57;;;6.18;;
51838;SDS011;37886;53.174;6.368;2022-12-20T03:09:34;7.70;;;5.65;;
51838;SDS011;37886;53.174;6.368;2022-12-20T03:12:01;14.15;;;6.93;;
51838;SDS011;37886;53.174;6.368;2022-12-20T03:14:27;13.32;;;6.95;;
51838;SDS011;37886;53.174;6.368;2022-12-20T03:16:53;9.40;;;6.40;;
51838;SDS011;37886;53.174;6.368;2022-12-20T03:19:19;8.68;;;6.60;;
51838;SDS011;37886;53.174;6.368;2022-12-20T03:21:44;13.82;;;7.00;;
51838;SDS011;37886;53.174;6.368;2022-12-20T03:24:10;11.38;;;6.72;;
51838;SDS011;37886;53.174;6.368;2022-12-20T03:26:38;12.02;;;7.45;;
51838;SDS011;37886;53.174;6.368;2022-12-20T03:29:04;8.23;;;6.50;;
51838;SDS011;37886;53.174;6.368;2022-12-20T03:31:30;10.68;;;6.63;;
51838;SDS011;37886;53.174;6.368;2022-12-20T03:33:56;11.88;;;7.07;;
51838;SDS011;37886;53.174;6.368;2022-12-20T03:36:22;9.27;;;6.53;;
51838;SDS011;37886;53.174;6.368;2022-12-20T03:38:52;10.40;;;7.28;;
51838;SDS011;37886;53.174;6.368;2022-12-20T03:41:18;12.18;;;6.43;;
51838;SDS011;37886;53.174;6.368;2022-12-20T03:43:46;12.27;;;6.60;;
51838;SDS011;37886;53.174;6.368;2022-12-20T03:46:12;9.75;;;7.47;;
51838;SDS011;37886;53.174;6.368;2022-12-20T03:48:38;13.20;;;6.65;;
51838;SDS011;37886;53.174;6.368;2022-12-20T03:51:04;10.93;;;7.28;;
51838;SDS011;37886;53.174;6.368;2022-12-20T03:53:30;8.93;;;6.38;;
51838;SDS011;37886;53.174;6.368;2022-12-20T03:55:56;12.05;;;6.95;;
51838;SDS011;37886;53.174;6.368;2022-12-20T03:58:22;8.55;;;6.50;;
51838;SDS011;37886;53.174;6.368;2022-12-20T04:00:48;14.00;;;7.22;;
51838;SDS011;37886;53.174;6.368;2022-12-20T04:03:14;7.47;;;6.13;;
51838;SDS011;37886;53.174;6.368;2022-12-20T04:05:39;9.60;;;6.65;;
51838;SDS011;37886;53.174;6.368;2022-12-20T04:08:06;12.60;;;6.30;;
51838;SDS011;37886;53.174;6.368;2022-12-20T04:10:32;9.63;;;6.07;;
51838;SDS011;37886;53.174;6.368;2022-12-20T04:13:18;11.85;;;6.65;;
51838;SDS011;37886;53.174;6.368;2022-12-20T04:15:43;8.45;;;6.32;;
51838;SDS011;37886;53.174;6.368;2022-12-20T04:18:09;8.48;;;6.03;;
51838;SDS011;37886;53.174;6.368;2022-12-20T04:20:35;8.20;;;6.00;;
51838;SDS011;37886;53.174;6.368;2022-12-20T04:23:00;9.30;;;5.88;;
51838;SDS011;37886;53.174;6.368;2022-12-20T04:25:26;10.55;;;6.22;;
51838;SDS011;37886;53.174;6.368;2022-12-20T04:27:52;11.23;;;6.50;;
51838;SDS011;37886;53.174;6.368;2022-12-20T04:30:18;13.70;;;6.85;;
51838;SDS011;37886;53.174;6.368;2022-12-20T04:32:43;11.23;;;6.78;;
51838;SDS011;37886;53.174;6.368;2022-12-20T04:35:09;7.80;;;6.13;;
51838;SDS011;37886;53.174;6.368;2022-12-20T04:37:35;10.95;;;6.53;;
51838;SDS011;37886;53.174;6.368;2022-12-20T04:40:01;8.70;;;6.72;;
51838;SDS011;37886;53.174;6.368;2022-12-20T04:42:27;9.02;;;6.43;;
51838;SDS011;37886;53.174;6.368;2022-12-20T04:44:52;8.52;;;6.10;;
51838;SDS011;37886;53.174;6.368;2022-12-20T04:47:18;8.70;;;6.07;;
51838;SDS011;37886;53.174;6.368;2022-12-20T04:49:44;12.98;;;6.82;;
51838;SDS011;37886;53.174;6.368;2022-12-20T04:52:10;12.57;;;6.55;;
51838;SDS011;37886;53.174;6.368;2022-12-20T04:54:54;9.02;;;6.28;;
51838;SDS011;37886;53.174;6.368;2022-12-20T04:57:20;12.02;;;5.95;;
51838;SDS011;37886;53.174;6.368;2022-12-20T04:59:45;9.80;;;6.80;;
51838;SDS011;37886;53.174;6.368;2022-12-20T05:02:11;11.90;;;6.40;;
51838;SDS011;37886;53.174;6.368;2022-12-20T05:04:37;11.57;;;6.05;;
51838;SDS011;37886;53.174;6.368;2022-12-20T05:07:02;9.48;;;6.40;;
51838;SDS011;37886;53.174;6.368;2022-12-20T05:09:28;10.05;;;6.10;;
51838;SDS011;37886;53.174;6.368;2022-12-20T05:11:54;7.93;;;6.10;;
51838;SDS011;37886;53.174;6.368;2022-12-20T05:14:19;11.25;;;6.10;;
51838;SDS011;37886;53.174;6.368;2022-12-20T05:16:45;12.02;;;6.80;;
51838;SDS011;37886;53.174;6.368;2022-12-20T05:19:11;9.20;;;6.20;;
51838;SDS011;37886;53.174;6.368;2022-12-20T05:21:37;10.05;;;6.40;;
51838;SDS011;37886;53.174;6.368;2022-12-20T05:24:21;9.68;;;5.70;;
51838;SDS011;37886;53.174;6.368;2022-12-20T05:27:05;10.95;;;6.93;;
51838;SDS011;37886;53.174;6.368;2022-12-20T05:29:30;12.35;;;6.45;;
51838;SDS011;37886;53.174;6.368;2022-12-20T05:31:56;10.75;;;5.97;;
51838;SDS011;37886;53.174;6.368;2022-12-20T05:34:22;8.85;;;6.07;;
51838;SDS011;37886;53.174;6.368;2022-12-20T05:36:48;6.53;;;5.53;;
51838;SDS011;37886;53.174;6.368;2022-12-20T05:39:13;10.80;;;5.72;;
51838;SDS011;37886;53.174;6.368;2022-12-20T05:41:42;10.40;;;5.35;;
51838;SDS011;37886;53.174;6.368;2022-12-20T05:44:08;7.82;;;5.57;;
51838;SDS011;37886;53.174;6.368;2022-12-20T05:46:33;10.15;;;5.80;;
51838;SDS011;37886;53.174;6.368;2022-12-20T05:48:59;7.78;;;5.60;;
51838;SDS011;37886;53.174;6.368;2022-12-20T05:51:25;7.60;;;4.80;;
51838;SDS011;37886;53.174;6.368;2022-12-20T05:53:51;10.07;;;5.63;;
51838;SDS011;37886;53.174;6.368;2022-12-20T05:56:16;5.90;;;4.88;;
51838;SDS011;37886;53.174;6.368;2022-12-20T05:58:42;7.55;;;5.40;;
51838;SDS011;37886;53.174;6.368;2022-12-20T06:01:08;12.25;;;5.68;;
51838;SDS011;37886;53.174;6.368;2022-12-20T06:03:34;8.98;;;5.68;;
51838;SDS011;37886;53.174;6.368;2022-12-20T06:06:00;10.43;;;5.63;;
51838;SDS011;37886;53.174;6.368;2022-12-20T06:08:27;10.32;;;5.30;;
51838;SDS011;37886;53.174;6.368;2022-12-20T06:10:52;7.97;;;5.78;;
51838;SDS011;37886;53.174;6.368;2022-12-20T06:13:18;11.38;;;5.90;;
51838;SDS011;37886;53.174;6.368;2022-12-20T06:15:44;8.00;;;5.63;;
51838;SDS011;37886;53.174;6.368;2022-12-20T06:18:10;9.52;;;5.03;;
51838;SDS011;37886;53.174;6.368;2022-12-20T06:20:36;11.57;;;6.15;;
51838;SDS011;37886;53.174;6.368;2022-12-20T06:23:02;9.48;;;5.20;;
51838;SDS011;37886;53.174;6.368;2022-12-20T06:25:28;12.70;;;5.00;;
51838;SDS011;37886;53.174;6.368;2022-12-20T06:27:54;10.18;;;5.47;;
51838;SDS011;37886;53.174;6.368;2022-12-20T06:30:20;8.80;;;4.85;;
51838;SDS011;37886;53.174;6.368;2022-12-20T06:32:47;10.35;;;5.00;;
51838;SDS011;37886;53.174;6.368;2022-12-20T06:35:13;9.85;;;5.65;;
51838;SDS011;37886;53.174;6.368;2022-12-20T06:37:39;7.65;;;4.80;;
51838;SDS011;37886;53.174;6.368;2022-12-20T06:40:09;13.48;;;4.72;;
51838;SDS011;37886;53.174;6.368;2022-12-20T06:42:37;8.52;;;5.20;;
51838;SDS011;37886;53.174;6.368;2022-12-20T06:45:03;6.25;;;4.70;;
51838;SDS011;37886;53.174;6.368;2022-12-20T06:47:29;9.98;;;4.88;;
51838;SDS011;37886;53.174;6.368;2022-12-20T06:49:55;10.30;;;4.80;;
51838;SDS011;37886;53.174;6.368;2022-12-20T06:52:21;11.23;;;5.47;;
51838;SDS011;37886;53.174;6.368;2022-12-20T06:54:48;7.97;;;5.30;;
51838;SDS011;37886;53.174;6.368;2022-12-20T06:57:13;10.25;;;5.55;;
51838;SDS011;37886;53.174;6.368;2022-12-20T06:59:39;7.47;;;6.07;;
51838;SDS011;37886;53.174;6.368;2022-12-20T07:02:05;7.78;;;5.47;;
51838;SDS011;37886;53.174;6.368;2022-12-20T07:04:31;7.80;;;6.55;;
51838;SDS011;37886;53.174;6.368;2022-12-20T07:06:57;8.23;;;5.85;;
51838;SDS011;37886;53.174;6.368;2022-12-20T07:09:22;8.93;;;6.47;;
51838;SDS011;37886;53.174;6.368;2022-12-20T07:11:48;8.45;;;6.63;;
51838;SDS011;37886;53.174;6.368;2022-12-20T07:14:14;11.23;;;6.97;;
51838;SDS011;37886;53.174;6.368;2022-12-20T07:16:39;7.65;;;6.50;;
51838;SDS011;37886;53.174;6.368;2022-12-20T07:19:10;8.48;;;7.03;;
51838;SDS011;37886;53.174;6.368;2022-12-20T07:21:37;12.73;;;7.88;;
51838;SDS011;37886;53.174;6.368;2022-12-20T07:24:03;11.30;;;7.88;;
51838;SDS011;37886;53.174;6.368;2022-12-20T07:26:30;11.52;;;8.70;;
51838;SDS011;37886;53.174;6.368;2022-12-20T07:28:55;11.68;;;8.65;;
51838;SDS011;37886;53.174;6.368;2022-12-20T07:31:26;11.25;;;8.10;;
51838;SDS011;37886;53.174;6.368;2022-12-20T07:33:52;12.55;;;8.70;;
51838;SDS011;37886;53.174;6.368;2022-12-20T07:36:18;9.57;;;8.60;;
51838;SDS011;37886;53.174;6.368;2022-12-20T07:38:44;11.90;;;9.70;;
51838;SDS011;37886;53.174;6.368;2022-12-20T07:41:11;16.35;;;9.90;;
51838;SDS011;37886;53.174;6.368;2022-12-20T07:43:38;12.15;;;9.75;;
51838;SDS011;37886;53.174;6.368;2022-12-20T07:46:05;16.65;;;10.75;;
51838;SDS011;37886;53.174;6.368;2022-12-20T07:48:32;11.73;;;10.32;;
51838;SDS011;37886;53.174;6.368;2022-12-20T07:50:59;15.88;;;10.43;;
51838;SDS011;37886;53.174;6.368;2022-12-20T07:53:29;14.95;;;11.95;;
51838;SDS011;37886;53.174;6.368;2022-12-20T07:55:57;14.45;;;10.77;;
51838;SDS011;37886;53.174;6.368;2022-12-20T07:58:25;16.55;;;10.65;;
51838;SDS011;37886;53.174;6.368;2022-12-20T08:00:51;18.58;;;12.05;;
51838;SDS011;37886;53.174;6.368;2022-12-20T08:03:22;12.45;;;10.82;;
51838;SDS011;37886;53.174;6.368;2022-12-20T08:06:00;13.15;;;11.27;;
51838;SDS011;37886;53.174;6.368;2022-12-20T08:08:29;15.00;;;10.30;;
51838;SDS011;37886;53.174;6.368;2022-12-20T08:10:57;13.23;;;10.32;;
51838;SDS011;37886;53.174;6.368;2022-12-20T08:13:23;14.77;;;10.35;;
51838;SDS011;37886;53.174;6.368;2022-12-20T08:15:50;12.48;;;10.35;;
51838;SDS011;37886;53.174;6.368;2022-12-20T08:18:15;11.75;;;9.70;;
51838;SDS011;37886;53.174;6.368;2022-12-20T08:20:41;13.00;;;8.80;;
51838;SDS011;37886;53.174;6.368;2022-12-20T08:23:07;10.88;;;8.50;;
51838;SDS011;37886;53.174;6.368;2022-12-20T08:25:33;11.48;;;8.80;;
51838;SDS011;37886;53.174;6.368;2022-12-20T08:27:59;13.38;;;8.65;;
51838;SDS011;37886;53.174;6.368;2022-12-20T08:30:26;12.90;;;8.05;;
51838;SDS011;37886;53.174;6.368;2022-12-20T08:32:53;9.23;;;7.40;;
51838;SDS011;37886;53.174;6.368;2022-12-20T08:35:19;10.50;;;7.45;;
51838;SDS011;37886;53.174;6.368;2022-12-20T08:37:45;11.82;;;6.95;;
51838;SDS011;37886;53.174;6.368;2022-12-20T08:40:11;8.93;;;6.43;;
51838;SDS011;37886;53.174;6.368;2022-12-20T08:42:37;12.73;;;6.50;;
51838;SDS011;37886;53.174;6.368;2022-12-20T08:45:03;8.55;;;6.65;;
51838;SDS011;37886;53.174;6.368;2022-12-20T08:47:29;10.07;;;6.05;;
51838;SDS011;37886;53.174;6.368;2022-12-20T08:49:55;12.82;;;6.05;;
51838;SDS011;37886;53.174;6.368;2022-12-20T08:52:20;7.97;;;5.30;;
51838;SDS011;37886;53.174;6.368;2022-12-20T08:54:46;9.27;;;5.63;;
51838;SDS011;37886;53.174;6.368;2022-12-20T08:57:12;8.95;;;5.50;;
51838;SDS011;37886;53.174;6.368;2022-12-20T08:59:38;8.23;;;5.40;;
51838;SDS011;37886;53.174;6.368;2022-12-20T09:02:03;10.27;;;5.53;;
51838;SDS011;37886;53.174;6.368;2022-12-20T09:04:29;7.07;;;5.05;;
51838;SDS011;37886;53.174;6.368;2022-12-20T09:06:55;9.70;;;5.53;;
51838;SDS011;37886;53.174;6.368;2022-12-20T09:09:21;7.78;;;5.25;;
51838;SDS011;37886;53.174;6.368;2022-12-20T09:11:47;7.30;;;4.80;;
51838;SDS011;37886;53.174;6.368;2022-12-20T09:14:12;8.38;;;4.75;;
51838;SDS011;37886;53.174;6.368;2022-12-20T09:16:38;8.27;;;4.65;;
51838;SDS011;37886;53.174;6.368;2022-12-20T09:19:04;7.80;;;4.70;;
51838;SDS011;37886;53.174;6.368;2022-12-20T09:21:29;8.43;;;4.20;;
51838;SDS011;37886;53.174;6.368;2022-12-20T09:23:55;6.43;;;4.85;;
51838;SDS011;37886;53.174;6.368;2022-12-20T09:26:22;9.63;;;5.47;;
51838;SDS011;37886;53.174;6.368;2022-12-20T09:28:48;8.73;;;4.65;;
51838;SDS011;37886;53.174;6.368;2022-12-20T09:31:19;7.90;;;4.65;;
51838;SDS011;37886;53.174;6.368;2022-12-20T09:33:46;7.72;;;4.28;;
51838;SDS011;37886;53.174;6.368;2022-12-20T09:36:16;8.93;;;4.45;;
51838;SDS011;37886;53.174;6.368;2022-12-20T09:38:43;9.38;;;4.68;;
51838;SDS011;37886;53.174;6.368;2022-12-20T09:41:32;7.15;;;4.60;;
51838;SDS011;37886;53.174;6.368;2022-12-20T09:43:59;5.60;;;4.00;;
51838;SDS011;37886;53.174;6.368;2022-12-20T09:46:28;7.95;;;4.35;;
51838;SDS011;37886;53.174;6.368;2022-12-20T09:48:54;7.25;;;3.95;;
51838;SDS011;37886;53.174;6.368;2022-12-20T09:57:00;5.57;;;3.55;;
51838;SDS011;37886;53.174;6.368;2022-12-20T09:59:34;5.55;;;3.90;;
51838;SDS011;37886;53.174;6.368;2022-12-20T10:02:06;8.68;;;4.57;;
51838;SDS011;37886;53.174;6.368;2022-12-20T10:04:37;7.18;;;4.03;;
51838;SDS011;37886;53.174;6.368;2022-12-20T10:09:51;7.35;;;4.10;;
51838;SDS011;37886;53.174;6.368;2022-12-20T10:15:53;10.07;;;4.07;;
51838;SDS011;37886;53.174;6.368;2022-12-20T10:20:33;7.72;;;4.75;;
51838;SDS011;37886;53.174;6.368;2022-12-20T10:25:52;7.78;;;3.78;;
51838;SDS011;37886;53.174;6.368;2022-12-20T10:28:30;10.18;;;4.28;;
51838;SDS011;37886;53.174;6.368;2022-12-20T10:31:02;8.27;;;4.40;;
51838;SDS011;37886;53.174;6.368;2022-12-20T10:33:31;6.25;;;3.95;;
51838;SDS011;37886;53.174;6.368;2022-12-20T10:36:32;8.63;;;4.22;;
51838;SDS011;37886;53.174;6.368;2022-12-20T10:38:58;11.93;;;4.00;;
51838;SDS011;37886;53.174;6.368;2022-12-20T10:41:26;8.45;;;3.60;;
51838;SDS011;37886;53.174;6.368;2022-12-20T10:44:36;4.78;;;3.60;;
51838;SDS011;37886;53.174;6.368;2022-12-20T10:46:54;5.93;;;4.03;;
51838;SDS011;37886;53.174;6.368;2022-12-20T10:49:28;5.70;;;3.47;;
51838;SDS011;37886;53.174;6.368;2022-12-20T10:52:16;9.43;;;4.03;;
51838;SDS011;37886;53.174;6.368;2022-12-20T10:54:45;8.85;;;3.80;;
51838;SDS011;37886;53.174;6.368;2022-12-20T10:57:13;8.25;;;4.43;;
51838;SDS011;37886;53.174;6.368;2022-12-20T11:07:27;5.72;;;3.85;;
51838;SDS011;37886;53.174;6.368;2022-12-20T11:09:56;5.85;;;4.00;;
51838;SDS011;37886;53.174;6.368;2022-12-20T11:12:23;8.02;;;4.18;;
51838;SDS011;37886;53.174;6.368;2022-12-20T11:14:49;5.72;;;4.30;;
51838;SDS011;37886;53.174;6.368;2022-12-20T11:17:18;10.07;;;4.15;;
51838;SDS011;37886;53.174;6.368;2022-12-20T11:25:35;7.57;;;4.88;;
51838;SDS011;37886;53.174;6.368;2022-12-20T11:28:10;7.20;;;5.03;;
51838;SDS011;37886;53.174;6.368;2022-12-20T11:33:52;9.88;;;5.32;;
51838;SDS011;37886;53.174;6.368;2022-12-20T11:41:39;11.05;;;4.93;;
51838;SDS011;37886;53.174;6.368;2022-12-20T11:44:25;7.20;;;4.75;;
51838;SDS011;37886;53.174;6.368;2022-12-20T11:47:32;9.70;;;5.10;;
51838;SDS011;37886;53.174;6.368;2022-12-20T11:50:07;12.32;;;5.63;;
51838;SDS011;37886;53.174;6.368;2022-12-20T11:52:47;10.13;;;6.47;;
51838;SDS011;37886;53.174;6.368;2022-12-20T11:55:26;11.00;;;6.07;;
51838;SDS011;37886;53.174;6.368;2022-12-20T11:57:56;13.32;;;5.75;;
51838;SDS011;37886;53.174;6.368;2022-12-20T12:00:34;10.50;;;6.57;;
51838;SDS011;37886;53.174;6.368;2022-12-20T12:05:47;8.68;;;5.90;;
51838;SDS011;37886;53.174;6.368;2022-12-20T12:08:22;9.18;;;5.55;;
51838;SDS011;37886;53.174;6.368;2022-12-20T12:10:57;10.15;;;5.68;;
51838;SDS011;37886;53.174;6.368;2022-12-20T12:13:26;11.43;;;6.00;;
51838;SDS011;37886;53.174;6.368;2022-12-20T12:16:09;9.07;;;5.95;;
51838;SDS011;37886;53.174;6.368;2022-12-20T12:18:58;8.27;;;6.38;;
51838;SDS011;37886;53.174;6.368;2022-12-20T12:21:27;8.57;;;7.10;;
51838;SDS011;37886;53.174;6.368;2022-12-20T12:26:45;10.52;;;7.80;;
51838;SDS011;37886;53.174;6.368;2022-12-20T12:29:12;12.82;;;8.45;;
51838;SDS011;37886;53.174;6.368;2022-12-20T12:31:51;14.00;;;8.68;;
51838;SDS011;37886;53.174;6.368;2022-12-20T12:43:06;12.57;;;10.88;;
51838;SDS011;37886;53.174;6.368;2022-12-20T12:46:00;12.10;;;9.48;;
51838;SDS011;37886;53.174;6.368;2022-12-20T12:48:38;14.60;;;9.70;;
51838;SDS011;37886;53.174;6.368;2022-12-20T12:51:09;13.68;;;11.02;;
51838;SDS011;37886;53.174;6.368;2022-12-20T12:53:47;11.27;;;10.00;;
51838;SDS011;37886;53.174;6.368;2022-12-20T13:01:47;16.90;;;11.00;;
51838;SDS011;37886;53.174;6.368;2022-12-20T13:10:02;15.57;;;11.80;;
51838;SDS011;37886;53.174;6.368;2022-12-20T13:12:59;19.63;;;12.45;;
51838;SDS011;37886;53.174;6.368;2022-12-20T13:17:54;15.63;;;11.57;;
51838;SDS011;37886;53.174;6.368;2022-12-20T13:20:35;15.85;;;11.13;;
51838;SDS011;37886;53.174;6.368;2022-12-20T13:25:35;15.15;;;11.27;;
51838;SDS011;37886;53.174;6.368;2022-12-20T13:31:33;15.85;;;11.65;;
51838;SDS011;37886;53.174;6.368;2022-12-20T13:38:38;17.45;;;11.90;;
51838;SDS011;37886;53.174;6.368;2022-12-20T13:41:11;14.55;;;10.88;;
51838;SDS011;37886;53.174;6.368;2022-12-20T13:43:47;17.10;;;11.52;;
51838;SDS011;37886;53.174;6.368;2022-12-20T13:46:20;17.23;;;12.52;;
51838;SDS011;37886;53.174;6.368;2022-12-20T13:51:35;15.48;;;11.45;;
51838;SDS011;37886;53.174;6.368;2022-12-20T13:54:02;14.20;;;12.18;;
51838;SDS011;37886;53.174;6.368;2022-12-20T13:59:14;17.45;;;13.48;;
51838;SDS011;37886;53.174;6.368;2022-12-20T14:02:18;19.42;;;13.77;;
51838;SDS011;37886;53.174;6.368;2022-12-20T14:04:44;18.00;;;13.50;;
51838;SDS011;37886;53.174;6.368;2022-12-20T14:07:15;15.50;;;13.63;;
51838;SDS011;37886;53.174;6.368;2022-12-20T14:09:45;16.58;;;14.50;;
51838;SDS011;37886;53.174;6.368;2022-12-20T14:12:18;18.73;;;14.18;;
51838;SDS011;37886;53.174;6.368;2022-12-20T14:14:45;19.83;;;13.50;;
51838;SDS011;37886;53.174;6.368;2022-12-20T14:20:04;20.83;;;15.35;;
51838;SDS011;37886;53.174;6.368;2022-12-20T14:22:31;20.55;;;15.52;;
51838;SDS011;37886;53.174;6.368;2022-12-20T14:24:58;17.65;;;15.73;;
51838;SDS011;37886;53.174;6.368;2022-12-20T14:27:26;16.75;;;15.05;;
51838;SDS011;37886;53.174;6.368;2022-12-20T14:29:56;23.15;;;17.77;;
51838;SDS011;37886;53.174;6.368;2022-12-20T14:32:22;21.23;;;17.48;;
51838;SDS011;37886;53.174;6.368;2022-12-20T14:34:48;22.92;;;18.45;;
51838;SDS011;37886;53.174;6.368;2022-12-20T14:37:17;25.30;;;18.60;;
51838;SDS011;37886;53.174;6.368;2022-12-20T14:42:34;24.38;;;20.52;;
51838;SDS011;37886;53.174;6.368;2022-12-20T14:47:33;24.80;;;21.52;;
51838;SDS011;37886;53.174;6.368;2022-12-20T14:50:01;26.13;;;21.35;;
51838;SDS011;37886;53.174;6.368;2022-12-20T14:52:33;25.92;;;22.35;;
51838;SDS011;37886;53.174;6.368;2022-12-20T14:55:05;21.73;;;19.35;;
51838;SDS011;37886;53.174;6.368;2022-12-20T14:57:39;30.45;;;22.48;;
51838;SDS011;37886;53.174;6.368;2022-12-20T15:02:58;30.48;;;22.95;;
51838;SDS011;37886;53.174;6.368;2022-12-20T15:05:46;27.27;;;22.65;;
51838;SDS011;37886;53.174;6.368;2022-12-20T15:08:21;30.98;;;23.75;;
51838;SDS011;37886;53.174;6.368;2022-12-20T15:13:21;30.08;;;23.10;;
51838;SDS011;37886;53.174;6.368;2022-12-20T15:15:50;29.83;;;25.50;;
51838;SDS011;37886;53.174;6.368;2022-12-20T15:18:17;33.70;;;25.77;;
51838;SDS011;37886;53.174;6.368;2022-12-20T15:20:45;28.02;;;24.75;;
51838;SDS011;37886;53.174;6.368;2022-12-20T15:23:15;32.78;;;24.92;;
51838;SDS011;37886;53.174;6.368;2022-12-20T15:25:43;30.42;;;25.20;;
51838;SDS011;37886;53.174;6.368;2022-12-20T15:28:17;34.05;;;27.67;;
51838;SDS011;37886;53.174;6.368;2022-12-20T15:30:44;31.33;;;26.67;;
51838;SDS011;37886;53.174;6.368;2022-12-20T15:33:24;36.03;;;26.45;;
51838;SDS011;37886;53.174;6.368;2022-12-20T15:35:52;37.80;;;28.10;;
51838;SDS011;37886;53.174;6.368;2022-12-20T15:38:27;38.47;;;31.63;;
51838;SDS011;37886;53.174;6.368;2022-12-20T15:40:53;36.42;;;29.70;;
51838;SDS011;37886;53.174;6.368;2022-12-20T15:43:24;34.47;;;28.63;;
51838;SDS011;37886;53.174;6.368;2022-12-20T15:45:52;37.42;;;30.90;;
51838;SDS011;37886;53.174;6.368;2022-12-20T15:48:19;40.47;;;31.98;;
51838;SDS011;37886;53.174;6.368;2022-12-20T15:50:51;42.25;;;32.45;;
51838;SDS011;37886;53.174;6.368;2022-12-20T15:53:19;41.03;;;31.75;;
51838;SDS011;37886;53.174;6.368;2022-12-20T15:55:51;48.03;;;34.92;;
51838;SDS011;37886;53.174;6.368;2022-12-20T15:58:17;43.23;;;35.80;;
51838;SDS011;37886;53.174;6.368;2022-12-20T16:00:43;48.08;;;33.30;;
51838;SDS011;37886;53.174;6.368;2022-12-20T16:03:17;45.78;;;32.42;;
51838;SDS011;37886;53.174;6.368;2022-12-20T16:05:45;46.45;;;32.25;;
51838;SDS011;37886;53.174;6.368;2022-12-20T16:08:11;50.90;;;36.05;;
51838;SDS011;37886;53.174;6.368;2022-12-20T16:10:37;48.20;;;37.70;;
51838;SDS011;37886;53.174;6.368;2022-12-20T16:13:03;46.85;;;35.22;;
51838;SDS011;37886;53.174;6.368;2022-12-20T16:15:31;50.15;;;36.65;;
51838;SDS011;37886;53.174;6.368;2022-12-20T16:17:57;49.97;;;36.08;;
51838;SDS011;37886;53.174;6.368;2022-12-20T16:20:29;54.45;;;36.90;;
51838;SDS011;37886;53.174;6.368;2022-12-20T16:22:54;59.63;;;37.05;;
51838;SDS011;37886;53.174;6.368;2022-12-20T16:25:23;54.25;;;36.30;;
51838;SDS011;37886;53.174;6.368;2022-12-20T16:27:51;52.08;;;36.97;;
51838;SDS011;37886;53.174;6.368;2022-12-20T16:30:17;54.72;;;38.05;;
51838;SDS011;37886;53.174;6.368;2022-12-20T16:32:42;56.47;;;39.30;;
51838;SDS011;37886;53.174;6.368;2022-12-20T16:35:25;61.17;;;40.25;;
51838;SDS011;37886;53.174;6.368;2022-12-20T16:37:54;64.55;;;42.33;;
51838;SDS011;37886;53.174;6.368;2022-12-20T16:40:24;68.30;;;42.30;;
51838;SDS011;37886;53.174;6.368;2022-12-20T16:42:52;58.17;;;40.22;;